Time;durP1;ratioP1;P1;durP2;ratioP2;P2;SDS_P1;SDS_P2;PMS_P1;PMS_P2;Temp;Humidity;BMP_temperature;BMP_pressure;BME280_temperature;BME280_humidity;BME280_pressure;Samples;Min_cycle;Max_cycle;Signal;HPM_P1;HPM_P2
2022/04/18 00:02:09;;;;;;;4.13;3.80;;;17.90;51.90;;;;;;5133480;28;20224;-74
2022/04/18 00:04:34;;;;;;;6.10;4.82;;;17.90;51.90;;;;;;5133632;28;20168;-73
2022/04/18 00:07:01;;;;;;;4.75;4.32;;;17.90;51.90;;;;;;5132963;28;20168;-76
2022/04/18 00:09:26;;;;;;;4.30;3.90;;;17.90;51.90;;;;;;5133681;28;20176;-76
2022/04/18 00:11:52;;;;;;;4.65;4.25;;;17.90;51.90;;;;;;5133472;28;20164;-75
2022/04/18 00:14:17;;;;;;;4.60;4.18;;;17.90;52.00;;;;;;5132576;28;20542;-75
2022/04/18 00:16:43;;;;;;;4.78;4.28;;;17.90;52.00;;;;;;5133115;28;20260;-76
2022/04/18 00:19:08;;;;;;;4.72;4.28;;;17.90;52.00;;;;;;5134959;27;20217;-76
2022/04/18 00:21:34;;;;;;;5.45;4.50;;;17.80;51.90;;;;;;5136565;27;20192;-74
2022/04/18 00:23:59;;;;;;;5.10;4.60;;;17.80;52.00;;;;;;5137157;27;20177;-75
2022/04/18 00:26:25;;;;;;;5.63;4.78;;;17.80;51.90;;;;;;5137309;27;20205;-74
2022/04/18 00:28:50;;;;;;;6.00;5.40;;;17.80;52.00;;;;;;5136244;27;20164;-76
2022/04/18 00:31:16;;;;;;;5.30;4.80;;;17.80;52.00;;;;;;5137062;27;20172;-75
2022/04/18 00:33:41;;;;;;;5.47;4.97;;;17.80;52.00;;;;;;5136748;27;20192;-74
2022/04/18 00:36:07;;;;;;;5.88;5.28;;;17.80;52.10;;;;;;5136223;27;20234;-73
2022/04/18 00:38:32;;;;;;;5.95;4.97;;;17.70;52.00;;;;;;5137090;27;20172;-74
2022/04/18 00:40:58;;;;;;;5.65;5.15;;;17.80;52.00;;;;;;5136820;27;20617;-74
2022/04/18 00:43:39;;;;;;;5.40;4.90;;;17.80;52.10;;;;;;5136367;27;20547;-74
2022/04/18 00:46:05;;;;;;;5.47;5.00;;;17.70;52.00;;;;;;5137079;27;20177;-77
2022/04/18 00:48:31;;;;;;;5.78;5.20;;;17.80;52.00;;;;;;5136287;27;20175;-75
2022/04/18 00:50:56;;;;;;;6.40;5.60;;;17.70;52.00;;;;;;5136510;27;20568;-77
2022/04/18 00:53:22;;;;;;;6.13;5.53;;;17.70;52.00;;;;;;5118530;27;20168;-75
2022/04/18 00:55:47;;;;;;;6.03;5.53;;;17.70;52.00;;;;;;5135634;27;20203;-75
2022/04/18 00:58:13;;;;;;;6.20;5.60;;;17.70;52.00;;;;;;5136744;27;20213;-74
2022/04/18 01:00:38;;;;;;;6.40;5.80;;;17.70;52.00;;;;;;5118037;27;20177;-73
2022/04/18 01:03:04;;;;;;;5.97;5.28;;;17.70;52.00;;;;;;5135532;27;20643;-76
2022/04/18 01:05:29;;;;;;;6.30;5.63;;;17.70;52.00;;;;;;5136368;27;20643;-74
2022/04/18 01:07:55;;;;;;;6.70;6.07;;;17.60;52.00;;;;;;5136289;27;20672;-76
2022/04/18 01:10:23;;;;;;;6.63;6.03;;;17.60;51.90;;;;;;5135643;27;20172;-74
2022/04/18 01:12:49;;;;;;;5.95;5.45;;;17.60;52.00;;;;;;5136447;27;20263;-74
2022/04/18 01:15:14;;;;;;;6.65;6.05;;;17.60;52.00;;;;;;5136378;27;20291;-75
2022/04/18 01:17:40;;;;;;;6.45;5.95;;;17.60;52.00;;;;;;5135156;27;20267;-74
2022/04/18 01:20:06;;;;;;;5.75;5.22;;;17.60;51.90;;;;;;5136334;27;20193;-74
2022/04/18 01:22:32;;;;;;;6.10;5.50;;;17.60;52.00;;;;;;5136316;27;20595;-73
2022/04/18 01:30:26;;;;;;;7.55;6.13;;;17.60;52.00;;;;;;5134921;27;20180;-73
2022/04/18 01:32:51;;;;;;;7.90;5.93;;;17.50;51.90;;;;;;5134903;27;20168;-74
2022/04/18 01:35:17;;;;;;;6.05;5.55;;;17.60;52.00;;;;;;5135791;27;20655;-74
2022/04/18 01:37:42;;;;;;;6.57;5.97;;;17.60;52.00;;;;;;5134948;27;20180;-75
2022/04/18 01:40:08;;;;;;;6.85;6.15;;;17.60;51.90;;;;;;5135698;27;20650;-74
2022/04/18 01:42:33;;;;;;;6.80;6.20;;;17.60;51.90;;;;;;5135715;27;20180;-73
2022/04/18 01:45:00;;;;;;;6.40;5.80;;;17.50;52.50;;;;;;5134749;27;20643;-76
2022/04/18 01:47:26;;;;;;;6.97;6.25;;;17.60;52.00;;;;;;5135873;27;20180;-74
2022/04/18 01:49:51;;;;;;;7.18;6.47;;;17.60;51.90;;;;;;5135519;27;20168;-76
2022/04/18 01:52:17;;;;;;;7.35;6.60;;;17.50;51.90;;;;;;5135086;27;20176;-76
2022/04/18 01:54:42;;;;;;;6.82;6.13;;;17.50;51.90;;;;;;5135256;27;20168;-73
2022/04/18 01:57:08;;;;;;;6.65;6.00;;;17.50;52.00;;;;;;5135286;27;20313;-73
2022/04/18 01:59:33;;;;;;;6.90;6.30;;;17.50;51.90;;;;;;5134547;27;20164;-72
2022/04/18 02:01:59;;;;;;;6.82;6.22;;;17.50;51.90;;;;;;5134799;27;20580;-72
2022/04/18 02:04:24;;;;;;;7.00;6.30;;;17.50;51.90;;;;;;5135306;27;20175;-73
2022/04/18 02:06:50;;;;;;;6.85;6.15;;;17.50;51.90;;;;;;5134423;27;20176;-76
2022/04/18 02:09:15;;;;;;;7.05;6.35;;;17.50;51.90;;;;;;5135320;27;20696;-75
2022/04/18 02:11:41;;;;;;;7.03;6.38;;;17.50;51.90;;;;;;5134898;27;20172;-73
2022/04/18 02:14:06;;;;;;;6.97;6.38;;;17.50;51.90;;;;;;5134335;27;20168;-74
2022/04/18 02:16:32;;;;;;;7.07;6.38;;;17.50;51.90;;;;;;5135093;27;20302;-72
2022/04/18 02:18:57;;;;;;;6.72;6.15;;;17.40;51.80;;;;;;5134818;27;20169;-74
2022/04/18 02:21:23;;;;;;;6.55;5.90;;;17.50;51.90;;;;;;5133995;27;20180;-72
2022/04/18 02:23:49;;;;;;;6.35;5.80;;;17.40;51.90;;;;;;5133442;27;20229;-73
2022/04/18 02:26:14;;;;;;;7.20;6.50;;;17.40;51.80;;;;;;5133663;27;20172;-74
2022/04/18 02:28:41;;;;;;;7.38;6.68;;;17.40;51.80;;;;;;5132490;27;20161;-73
2022/04/18 02:31:07;;;;;;;7.07;6.38;;;17.40;51.80;;;;;;5133773;27;20562;-74
2022/04/18 02:33:33;;;;;;;6.85;6.25;;;17.40;51.80;;;;;;5133346;27;20691;-73
2022/04/18 02:36:01;;;;;;;7.18;6.47;;;17.40;51.80;;;;;;5132536;27;20678;-72
2022/04/18 02:38:29;;;;;;;7.00;6.40;;;17.40;51.80;;;;;;5133590;27;20173;-72
2022/04/18 02:40:54;;;;;;;6.78;6.07;;;17.40;51.80;;;;;;5132512;27;20172;-75
2022/04/18 02:43:20;;;;;;;7.20;6.50;;;17.40;51.80;;;;;;5133163;27;20643;-73
2022/04/18 02:45:45;;;;;;;7.13;6.43;;;17.40;51.80;;;;;;5132995;27;20635;-74
2022/04/18 02:48:11;;;;;;;7.03;6.32;;;17.40;51.80;;;;;;5132857;27;20284;-75
2022/04/18 02:50:37;;;;;;;6.93;6.22;;;17.40;51.80;;;;;;5133123;27;20179;-73
2022/04/18 02:53:02;;;;;;;7.05;6.35;;;17.30;52.00;;;;;;5133495;27;20269;-75
2022/04/18 02:55:28;;;;;;;6.55;5.95;;;17.30;51.80;;;;;;5114038;27;20291;-74
2022/04/18 02:57:53;;;;;;;7.00;6.40;;;17.30;51.80;;;;;;5132903;27;20172;-73
2022/04/18 03:00:19;;;;;;;7.13;6.45;;;17.30;51.80;;;;;;5130033;27;20180;-73
2022/04/18 03:02:44;;;;;;;7.18;6.47;;;17.30;51.80;;;;;;5132089;27;20219;-73
2022/04/18 03:05:10;;;;;;;7.68;6.63;;;17.30;51.70;;;;;;5133253;27;20179;-74
2022/04/18 03:07:36;;;;;;;6.45;5.85;;;17.30;51.80;;;;;;5132998;27;20199;-75
2022/04/18 03:10:02;;;;;;;7.70;6.90;;;17.30;51.80;;;;;;5132376;27;20173;-74
2022/04/18 03:12:27;;;;;;;7.63;6.90;;;17.30;51.80;;;;;;5132897;27;20199;-72
2022/04/18 03:14:53;;;;;;;6.35;5.85;;;17.30;51.70;;;;;;5132454;27;20538;-74
2022/04/18 03:17:19;;;;;;;7.25;6.60;;;17.30;51.70;;;;;;5132219;27;20657;-73
2022/04/18 03:19:44;;;;;;;7.25;6.55;;;17.30;51.80;;;;;;5132601;27;20176;-73
2022/04/18 03:22:10;;;;;;;7.53;6.82;;;17.20;51.70;;;;;;5132636;27;20591;-73
2022/04/18 03:24:38;;;;;;;7.65;6.45;;;17.20;51.70;;;;;;5131696;27;20176;-73
2022/04/18 03:27:04;;;;;;;7.20;6.45;;;17.20;51.70;;;;;;5132719;27;20180;-75
2022/04/18 03:29:31;;;;;;;6.90;6.20;;;17.20;51.70;;;;;;5132695;27;20533;-74
2022/04/18 03:31:56;;;;;;;6.72;6.13;;;17.20;51.70;;;;;;5131948;27;20255;-74
2022/04/18 03:34:22;;;;;;;7.97;7.28;;;17.20;51.70;;;;;;5132872;28;20214;-74
2022/04/18 03:39:50;;;;;;;7.45;6.75;;;17.10;51.60;;;;;;5132715;28;20183;-73
2022/04/18 03:42:16;;;;;;;6.80;6.20;;;17.20;51.70;;;;;;5132882;28;20176;-75
2022/04/18 03:44:43;;;;;;;7.07;6.45;;;17.20;51.70;;;;;;5131836;28;20561;-73
2022/04/18 03:47:10;;;;;;;7.13;6.43;;;17.20;51.70;;;;;;5132777;28;20220;-76
2022/04/18 03:49:35;;;;;;;6.47;5.88;;;17.20;51.70;;;;;;5132207;28;20622;-75
2022/04/18 03:52:01;;;;;;;7.45;6.70;;;17.20;51.70;;;;;;5131809;28;20224;-76
2022/04/18 03:54:26;;;;;;;8.25;7.45;;;17.20;51.70;;;;;;5134688;27;20172;-73
2022/04/18 03:56:52;;;;;;;7.45;6.78;;;17.10;51.60;;;;;;5136598;27;20216;-73
2022/04/18 03:59:18;;;;;;;7.75;6.95;;;17.10;51.60;;;;;;5136072;27;20224;-74
2022/04/18 04:01:43;;;;;;;6.47;5.88;;;17.10;51.70;;;;;;5136372;27;20267;-73
2022/04/18 04:04:09;;;;;;;7.65;6.95;;;17.10;51.60;;;;;;5136641;27;20183;-76
2022/04/18 04:06:34;;;;;;;7.20;6.40;;;17.10;51.70;;;;;;5135504;27;20491;-73
2022/04/18 04:09:00;;;;;;;7.18;6.53;;;17.10;51.60;;;;;;5136446;27;20184;-75
2022/04/18 04:11:25;;;;;;;6.78;6.18;;;17.10;51.60;;;;;;5136742;27;20613;-73
2022/04/18 04:13:51;;;;;;;7.43;6.72;;;17.10;51.70;;;;;;5135407;27;20183;-74
2022/04/18 04:16:18;;;;;;;7.85;7.15;;;17.10;51.60;;;;;;5136197;27;20208;-74
2022/04/18 04:18:43;;;;;;;7.38;6.78;;;17.10;51.60;;;;;;5136078;27;20232;-74
2022/04/18 04:21:09;;;;;;;7.05;6.43;;;17.10;51.60;;;;;;5135444;27;20176;-74
2022/04/18 04:23:34;;;;;;;7.82;7.13;;;17.10;51.70;;;;;;5136166;27;20164;-73
2022/04/18 04:26:00;;;;;;;7.93;7.13;;;17.00;51.50;;;;;;5136455;27;20175;-74
2022/04/18 04:28:25;;;;;;;7.82;7.13;;;17.00;51.60;;;;;;5135674;27;20172;-72
2022/04/18 04:30:51;;;;;;;7.85;7.05;;;17.00;51.60;;;;;;5135825;27;20172;-74
2022/04/18 04:33:16;;;;;;;7.38;6.68;;;17.00;51.50;;;;;;5136222;27;20627;-72
2022/04/18 04:35:42;;;;;;;7.78;7.03;;;17.00;51.50;;;;;;5134757;27;20658;-73
2022/04/18 04:38:07;;;;;;;7.05;6.45;;;17.00;51.50;;;;;;5135953;27;20177;-74
2022/04/18 04:40:33;;;;;;;7.10;6.25;;;17.00;51.60;;;;;;5135373;27;20229;-73
2022/04/18 04:42:59;;;;;;;7.35;6.65;;;17.00;51.60;;;;;;5135843;27;20210;-75
2022/04/18 04:45:24;;;;;;;7.32;6.63;;;17.00;51.50;;;;;;5135799;27;20176;-74
2022/04/18 04:47:50;;;;;;;7.45;6.85;;;17.00;51.50;;;;;;5134811;27;20646;-76
2022/04/18 04:50:16;;;;;;;7.53;6.82;;;17.00;51.50;;;;;;5135953;27;20220;-76
2022/04/18 04:52:41;;;;;;;7.95;7.22;;;17.00;52.20;;;;;;5135213;27;20169;-73
2022/04/18 04:55:08;;;;;;;7.70;6.90;;;17.00;51.50;;;;;;5135102;27;20164;-75
2022/04/18 04:57:34;;;;;;;7.38;6.68;;;17.00;51.50;;;;;;5135732;27;20241;-72
2022/04/18 04:59:59;;;;;;;8.02;6.57;;;17.00;51.50;;;;;;5135368;27;20172;-73
2022/04/18 05:02:25;;;;;;;8.23;7.15;;;17.00;51.50;;;;;;5134448;27;20552;-72
2022/04/18 05:04:51;;;;;;;7.88;7.10;;;17.00;51.50;;;;;;5135052;27;20536;-74
2022/04/18 05:07:16;;;;;;;7.25;6.55;;;16.90;51.50;;;;;;5135498;27;20569;-76
2022/04/18 05:09:42;;;;;;;6.93;6.32;;;17.00;51.50;;;;;;5134664;27;20623;-75
2022/04/18 05:12:08;;;;;;;7.50;6.80;;;16.90;51.50;;;;;;5117383;27;20193;-74
2022/04/18 05:14:34;;;;;;;7.63;6.90;;;17.00;51.50;;;;;;5135204;27;20195;-73
2022/04/18 05:17:00;;;;;;;7.07;6.47;;;17.00;51.50;;;;;;5134976;27;20220;-75
2022/04/18 05:19:27;;;;;;;8.27;6.60;;;17.00;51.40;;;;;;5135189;27;20165;-73
2022/04/18 05:21:52;;;;;;;7.80;7.00;;;17.00;51.40;;;;;;5134863;27;20320;-74
2022/04/18 05:24:18;;;;;;;7.75;6.97;;;17.00;51.40;;;;;;5134641;27;20655;-74
2022/04/18 05:26:43;;;;;;;8.15;7.35;;;17.00;51.40;;;;;;5134861;27;20180;-74
2022/04/18 05:29:12;;;;;;;8.13;6.97;;;17.00;51.30;;;;;;5134856;27;20229;-76
2022/04/18 05:31:37;;;;;;;7.07;6.38;;;17.00;51.40;;;;;;5133885;27;20177;-74
2022/04/18 05:34:03;;;;;;;7.78;7.07;;;17.00;51.40;;;;;;5134595;27;20176;-73
2022/04/18 05:36:29;;;;;;;6.80;6.20;;;17.00;51.30;;;;;;5134511;27;20204;-74
2022/04/18 05:38:54;;;;;;;7.85;7.10;;;17.00;51.40;;;;;;5133593;27;20514;-75
2022/04/18 05:41:20;;;;;;;7.53;6.82;;;17.00;51.30;;;;;;5134557;27;20173;-76
2022/04/18 05:43:46;;;;;;;7.20;6.60;;;16.90;51.30;;;;;;5133482;27;20179;-76
2022/04/18 05:46:12;;;;;;;7.28;6.53;;;16.90;51.30;;;;;;5134586;27;20258;-76
2022/04/18 05:48:37;;;;;;;7.55;6.78;;;17.00;51.30;;;;;;5134117;27;20683;-75
2022/04/18 05:51:03;;;;;;;7.13;6.43;;;17.00;51.30;;;;;;5133646;27;20264;-77
2022/04/18 05:53:28;;;;;;;7.60;6.90;;;17.00;51.30;;;;;;5134558;27;20184;-75
2022/04/18 05:55:54;;;;;;;6.95;6.25;;;17.00;51.30;;;;;;5134140;27;20639;-76
2022/04/18 05:58:20;;;;;;;7.78;7.03;;;17.00;51.30;;;;;;5133696;27;20179;-74
2022/04/18 06:00:45;;;;;;;7.35;6.60;;;17.00;51.30;;;;;;5133726;27;20228;-74
2022/04/18 06:03:11;;;;;;;7.30;6.60;;;17.00;51.30;;;;;;5133792;27;20224;-74
2022/04/18 06:05:37;;;;;;;7.80;7.00;;;17.00;51.30;;;;;;5133118;27;20634;-75
2022/04/18 06:08:03;;;;;;;6.82;6.20;;;17.00;51.30;;;;;;5134394;27;20191;-77
2022/04/18 06:10:29;;;;;;;7.72;7.03;;;17.00;51.30;;;;;;5134720;27;20180;-74
2022/04/18 06:12:55;;;;;;;7.25;6.60;;;17.00;51.30;;;;;;5133110;27;20517;-74
2022/04/18 06:15:20;;;;;;;6.63;6.03;;;17.00;51.40;;;;;;5133883;27;20679;-76
2022/04/18 06:17:46;;;;;;;6.82;6.13;;;17.00;51.30;;;;;;5133172;27;20623;-76
2022/04/18 06:20:11;;;;;;;7.15;6.45;;;17.00;51.30;;;;;;5133109;27;20173;-74
2022/04/18 06:22:37;;;;;;;8.10;7.30;;;17.00;51.40;;;;;;5133541;27;20179;-74
2022/04/18 06:25:03;;;;;;;7.38;6.72;;;17.10;51.40;;;;;;5133987;27;20180;-74
2022/04/18 06:27:28;;;;;;;6.85;6.25;;;17.10;51.40;;;;;;5133287;27;20529;-75
2022/04/18 06:29:54;;;;;;;7.00;6.32;;;17.10;51.40;;;;;;5133871;27;20604;-76
2022/04/18 06:32:21;;;;;;;7.00;6.35;;;17.10;51.40;;;;;;5133621;27;20165;-74
2022/04/18 06:34:46;;;;;;;8.32;6.68;;;17.10;51.20;;;;;;5132631;27;20184;-73
2022/04/18 06:37:12;;;;;;;7.10;6.40;;;17.10;51.20;;;;;;5133776;27;20207;-75
2022/04/18 06:39:38;;;;;;;7.28;6.57;;;17.20;51.20;;;;;;5133379;27;20172;-76
2022/04/18 06:42:07;;;;;;;6.53;5.93;;;17.30;51.10;;;;;;5132814;27;20172;-76
2022/04/18 06:44:32;;;;;;;6.97;6.38;;;17.30;51.00;;;;;;5133559;27;20181;-74
2022/04/18 06:46:58;;;;;;;6.82;6.13;;;17.30;50.60;;;;;;5132825;27;20191;-76
2022/04/18 06:49:23;;;;;;;6.35;5.82;;;17.40;50.70;;;;;;5132993;27;20537;-77
2022/04/18 06:51:49;;;;;;;6.97;6.28;;;17.40;50.70;;;;;;5133086;27;20176;-77
2022/04/18 06:54:14;;;;;;;6.20;5.70;;;17.50;50.70;;;;;;5132529;27;20180;-77
2022/04/18 06:56:58;;;;;;;7.53;6.57;;;17.50;50.50;;;;;;5133088;27;20211;-74
2022/04/18 06:59:24;;;;;;;6.18;5.65;;;17.50;50.50;;;;;;5133254;27;20647;-73
2022/04/18 07:01:50;;;;;;;6.93;6.05;;;17.50;50.40;;;;;;5132023;27;20275;-74
2022/04/18 07:04:15;;;;;;;7.00;6.28;;;17.50;50.40;;;;;;5133483;27;20180;-76
2022/04/18 07:06:41;;;;;;;6.28;5.60;;;17.60;50.50;;;;;;5133010;27;20168;-75
2022/04/18 07:09:06;;;;;;;6.45;5.93;;;17.60;50.40;;;;;;5132526;27;20705;-76
2022/04/18 07:11:32;;;;;;;6.80;6.15;;;17.60;50.50;;;;;;5133080;27;20451;-76
2022/04/18 07:13:57;;;;;;;6.25;5.65;;;17.50;50.50;;;;;;5132963;27;20268;-75
2022/04/18 07:16:23;;;;;;;6.70;6.00;;;17.50;50.50;;;;;;5132359;27;20207;-73
2022/04/18 07:18:48;;;;;;;6.68;6.05;;;17.60;50.60;;;;;;5132951;27;20230;-76
2022/04/18 07:21:14;;;;;;;6.90;6.20;;;17.60;50.50;;;;;;5133060;27;20649;-72
2022/04/18 07:23:39;;;;;;;7.38;5.75;;;17.60;50.60;;;;;;5132074;27;20173;-74
2022/04/18 07:26:05;;;;;;;6.20;5.55;;;17.60;50.90;;;;;;5132962;27;20176;-70
2022/04/18 07:28:30;;;;;;;6.82;6.13;;;17.60;50.70;;;;;;5132050;27;20180;-70
2022/04/18 07:30:56;;;;;;;6.30;5.70;;;17.60;50.60;;;;;;5131861;27;20172;-73
2022/04/18 07:33:21;;;;;;;6.28;5.65;;;17.60;50.70;;;;;;5132958;27;20168;-72
2022/04/18 07:35:47;;;;;;;6.45;5.80;;;17.60;50.70;;;;;;5132700;28;20320;-72
2022/04/18 07:41:04;;;;;;;6.65;5.88;;;17.60;51.10;;;;;;5132528;28;20179;-73
2022/04/18 07:43:29;;;;;;;8.82;6.05;;;17.70;51.20;;;;;;5132006;28;20183;-72
2022/04/18 07:45:55;;;;;;;6.35;5.72;;;17.70;51.30;;;;;;5132553;28;20561;-69
2022/04/18 07:48:21;;;;;;;5.97;5.45;;;17.70;51.90;;;;;;5113991;28;20232;-71
2022/04/18 07:53:32;;;;;;;6.95;5.80;;;17.70;51.20;;;;;;5132555;28;20191;-71
2022/04/18 07:55:57;;;;;;;7.28;5.50;;;17.80;51.20;;;;;;5132028;28;20204;-70
2022/04/18 07:58:23;;;;;;;6.20;5.60;;;17.80;51.10;;;;;;5131911;28;20161;-71
2022/04/18 08:00:48;;;;;;;9.32;5.53;;;17.80;51.10;;;;;;5132191;28;20169;-72
2022/04/18 08:03:16;;;;;;;7.00;5.75;;;17.90;51.10;;;;;;5132078;28;20619;-72
2022/04/18 08:05:42;;;;;;;6.07;5.47;;;17.90;51.20;;;;;;5131423;28;20192;-72
2022/04/18 08:08:07;;;;;;;6.82;5.60;;;17.90;51.20;;;;;;5132188;28;20191;-72
2022/04/18 08:10:36;;;;;;;6.55;5.82;;;18.00;51.30;;;;;;5132184;28;20271;-73
2022/04/18 08:13:02;;;;;;;6.15;5.55;;;18.00;51.30;;;;;;5131699;28;20172;-72
2022/04/18 08:15:28;;;;;;;5.82;5.32;;;18.00;51.30;;;;;;5132172;28;20309;-72
2022/04/18 08:17:53;;;;;;;7.80;5.43;;;18.00;51.20;;;;;;5131888;28;20218;-73
2022/04/18 08:20:19;;;;;;;6.47;5.53;;;18.10;51.30;;;;;;5131908;28;20715;-73
2022/04/18 08:22:45;;;;;;;5.60;5.10;;;18.00;51.20;;;;;;5131911;28;20181;-73
2022/04/18 08:25:10;;;;;;;5.47;4.95;;;18.10;51.20;;;;;;5132371;28;20510;-72
2022/04/18 08:27:36;;;;;;;6.05;4.82;;;18.10;51.30;;;;;;5131401;28;20255;-74
2022/04/18 08:30:03;;;;;;;6.20;5.10;;;18.10;51.10;;;;;;5132137;28;20204;-74
2022/04/18 08:32:33;;;;;;;5.90;5.05;;;18.10;51.10;;;;;;5131674;28;20183;-72
2022/04/18 08:34:58;;;;;;;5.75;4.80;;;18.20;51.30;;;;;;5131883;28;20195;-72
2022/04/18 08:37:24;;;;;;;6.03;5.43;;;18.20;51.30;;;;;;5131819;28;20669;-71
2022/04/18 08:39:49;;;;;;;5.97;5.38;;;18.10;51.30;;;;;;5131847;27;20176;-72
2022/04/18 08:42:15;;;;;;;5.97;4.80;;;18.20;51.40;;;;;;5135495;27;20556;-72
2022/04/18 08:44:40;;;;;;;5.72;5.10;;;18.20;51.30;;;;;;5100156;27;20170;-75
2022/04/18 08:47:06;;;;;;;8.07;4.85;;;18.20;51.40;;;;;;5116935;27;20282;-73
2022/04/18 08:54:59;;;;;;;6.15;4.95;;;18.30;51.30;;;;;;5134854;27;20175;-72
2022/04/18 08:57:25;;;;;;;5.25;4.75;;;18.30;51.40;;;;;;5117092;27;20200;-73
2022/04/18 08:59:50;;;;;;;5.22;4.65;;;18.40;51.40;;;;;;5135150;27;20183;-73
2022/04/18 09:02:16;;;;;;;5.95;4.70;;;18.30;51.50;;;;;;5134465;27;20172;-73
2022/04/18 09:04:41;;;;;;;6.28;4.95;;;18.40;51.50;;;;;;5134843;27;20176;-74
2022/04/18 09:07:13;;;;;;;5.78;5.07;;;18.40;51.40;;;;;;5135069;27;20531;-73
2022/04/18 09:09:39;;;;;;;5.43;4.70;;;18.40;51.50;;;;;;5134075;27;20204;-72
2022/04/18 09:12:31;;;;;;;4.72;4.10;;;18.40;51.40;;;;;;5135099;27;20542;-71
2022/04/18 09:14:56;;;;;;;5.75;4.50;;;18.50;51.50;;;;;;5130036;27;20245;-73
2022/04/18 09:17:32;;;;;;;5.18;4.68;;;18.50;51.50;;;;;;5134876;27;20627;-73
2022/04/18 09:20:10;;;;;;;5.20;4.50;;;18.50;51.50;;;;;;5134658;27;20178;-72
2022/04/18 09:22:56;;;;;;;5.20;4.68;;;18.50;51.50;;;;;;5133672;27;20199;-73
2022/04/18 09:25:22;;;;;;;5.57;5.07;;;18.60;51.50;;;;;;5134441;27;20184;-73
2022/04/18 09:27:53;;;;;;;6.05;4.53;;;18.60;51.50;;;;;;5135460;27;20226;-73
2022/04/18 09:30:19;;;;;;;5.70;4.53;;;18.60;51.50;;;;;;5134479;27;20249;-76
2022/04/18 09:33:07;;;;;;;5.07;4.40;;;18.60;51.50;;;;;;5134573;27;20196;-72
2022/04/18 09:35:33;;;;;;;6.78;4.57;;;18.70;51.60;;;;;;5134710;27;20223;-71
2022/04/18 09:38:08;;;;;;;5.32;4.82;;;18.70;51.70;;;;;;5133410;27;20180;-71
2022/04/18 09:40:35;;;;;;;5.00;4.50;;;18.70;51.80;;;;;;5134518;27;20619;-73
2022/04/18 09:43:01;;;;;;;4.68;4.28;;;18.70;51.70;;;;;;5133745;27;20204;-72
2022/04/18 09:45:26;;;;;;;4.82;4.43;;;18.80;51.70;;;;;;5134465;27;20196;-72
2022/04/18 09:48:02;;;;;;;5.57;4.28;;;18.80;51.70;;;;;;5134046;27;20542;-72
2022/04/18 09:53:30;;;;;;;6.57;4.50;;;18.80;51.70;;;;;;5133877;27;20519;-73
2022/04/18 09:55:56;;;;;;;5.22;4.30;;;18.90;51.60;;;;;;5098497;27;20200;-72
2022/04/18 09:58:22;;;;;;;5.70;4.40;;;18.90;51.70;;;;;;5133482;27;20165;-72
2022/04/18 10:00:51;;;;;;;6.55;4.53;;;18.90;51.60;;;;;;5133728;27;20212;-70
2022/04/18 10:03:17;;;;;;;7.57;4.93;;;19.00;51.70;;;;;;5116212;27;20224;-72
2022/04/18 10:05:43;;;;;;;5.18;4.22;;;19.00;51.70;;;;;;5133164;27;20457;-72
2022/04/18 10:08:08;;;;;;;5.32;4.28;;;19.00;51.60;;;;;;5134351;27;20179;-69
2022/04/18 10:10:40;;;;;;;7.45;4.72;;;19.00;51.70;;;;;;5134300;27;20187;-69
2022/04/18 10:13:06;;;;;;;5.95;4.53;;;19.00;51.60;;;;;;5133531;27;20259;-69
2022/04/18 10:15:31;;;;;;;4.93;4.07;;;19.10;51.60;;;;;;5133833;27;20223;-71
2022/04/18 10:17:57;;;;;;;5.47;4.10;;;19.10;51.50;;;;;;5115088;27;20197;-70
2022/04/18 10:20:40;;;;;;;4.80;3.88;;;19.10;51.50;;;;;;5115079;27;20183;-69
2022/04/18 10:23:44;;;;;;;4.13;3.72;;;19.10;51.60;;;;;;5100495;27;20676;-74
2022/04/18 10:26:47;;;;;;;5.03;4.07;;;19.10;51.70;;;;;;5133235;27;20216;-73
2022/04/18 10:29:21;;;;;;;5.05;4.38;;;19.10;51.80;;;;;;5133620;27;20653;-74
2022/04/18 10:31:47;;;;;;;4.45;3.97;;;19.10;51.80;;;;;;5114999;27;20177;-74
2022/04/18 10:34:13;;;;;;;4.57;3.80;;;19.10;51.70;;;;;;5114283;27;20178;-72
2022/04/18 10:36:44;;;;;;;3.80;3.47;;;19.10;51.70;;;;;;5133717;27;20211;-72
2022/04/18 10:39:10;;;;;;;4.88;4.38;;;19.10;52.50;;;;;;5132875;27;20200;-72
2022/04/18 10:41:45;;;;;;;4.32;3.92;;;19.20;51.60;;;;;;5097569;27;20215;-72
2022/04/18 10:44:12;;;;;;;4.47;4.07;;;19.20;52.10;;;;;;5133372;27;20167;-71
2022/04/18 10:46:39;;;;;;;3.90;3.60;;;19.20;51.70;;;;;;5132191;27;20184;-72
2022/04/18 10:49:12;;;;;;;4.50;3.70;;;19.20;51.60;;;;;;5133581;27;20186;-79
2022/04/18 10:51:45;;;;;;;4.18;3.72;;;19.20;51.70;;;;;;5132998;27;20682;-70
2022/04/18 10:54:14;;;;;;;4.07;3.65;;;19.20;51.70;;;;;;5132222;27;20195;-72
2022/04/18 10:57:01;;;;;;;7.35;3.63;;;19.20;51.70;;;;;;5133068;27;20508;-71
2022/04/18 10:59:36;;;;;;;5.22;3.80;;;19.20;51.80;;;;;;5133186;27;20585;-73
2022/04/18 11:02:05;;;;;;;5.30;4.38;;;19.20;51.80;;;;;;5132556;27;20180;-74
2022/04/18 11:04:33;;;;;;;4.40;4.00;;;19.20;52.00;;;;;;5133273;27;20566;-73
2022/04/18 11:07:00;;;;;;;4.30;3.55;;;19.20;51.90;;;;;;5133013;27;20168;-73
2022/04/18 11:09:26;;;;;;;4.70;4.18;;;19.20;51.90;;;;;;5132472;27;20176;-72
2022/04/18 11:12:00;;;;;;;4.30;3.53;;;19.20;51.70;;;;;;5133028;27;20192;-71
2022/04/18 11:14:31;;;;;;;4.25;3.85;;;19.30;51.90;;;;;;5132307;27;20694;-73
2022/04/18 11:17:01;;;;;;;3.83;3.47;;;19.30;51.80;;;;;;5132921;27;20220;-72
2022/04/18 11:19:27;;;;;;;6.22;3.67;;;19.30;51.80;;;;;;5133245;27;20534;-73
2022/04/18 11:21:57;;;;;;;4.95;4.18;;;19.30;51.80;;;;;;5132290;27;20192;-72
2022/04/18 11:24:41;;;;;;;4.07;3.42;;;19.40;51.80;;;;;;5133166;27;20575;-71
2022/04/18 11:27:25;;;;;;;6.55;3.80;;;19.40;51.70;;;;;;5133046;27;20176;-72
2022/04/18 11:29:55;;;;;;;5.45;4.28;;;19.40;51.70;;;;;;5132199;27;20226;-67
2022/04/18 11:32:27;;;;;;;5.07;4.25;;;19.40;51.80;;;;;;5132644;27;20190;-71
2022/04/18 11:34:55;;;;;;;5.28;3.97;;;19.40;51.80;;;;;;5132671;27;20192;-71
2022/04/18 11:37:24;;;;;;;4.85;3.75;;;19.40;51.80;;;;;;5131846;28;20223;-70
2022/04/18 11:39:52;;;;;;;5.22;3.83;;;19.40;51.70;;;;;;5132538;28;20176;-70
2022/04/18 11:42:22;;;;;;;5.32;3.95;;;19.40;51.70;;;;;;5132650;28;20184;-72
2022/04/18 11:44:48;;;;;;;6.57;3.97;;;19.50;51.80;;;;;;5131540;28;20179;-72
2022/04/18 11:47:15;;;;;;;5.15;3.75;;;19.50;51.80;;;;;;5132276;28;20188;-72
2022/04/18 11:49:41;;;;;;;5.57;3.70;;;19.50;51.70;;;;;;5131458;28;20322;-69
2022/04/18 11:52:20;;;;;;;8.85;3.72;;;19.50;51.80;;;;;;5132291;28;20168;-71
2022/04/18 11:54:59;;;;;;;5.80;3.72;;;19.60;51.80;;;;;;5115240;28;20179;-72
2022/04/18 11:57:25;;;;;;;5.47;3.42;;;19.50;51.70;;;;;;5131572;28;20216;-71
2022/04/18 11:59:51;;;;;;;4.57;3.90;;;19.60;51.70;;;;;;5132139;28;20173;-69
2022/04/18 12:07:46;;;;;;;4.75;3.20;;;19.50;51.40;;;;;;5132108;28;20211;-69
2022/04/18 12:10:19;;;;;;;5.25;4.15;;;19.50;51.30;;;;;;5112317;27;20616;-71
2022/04/18 12:12:44;;;;;;;4.72;3.47;;;19.50;51.30;;;;;;5135964;27;20238;-72
2022/04/18 12:15:10;;;;;;;6.15;4.05;;;19.50;51.20;;;;;;5140792;27;20625;-72
2022/04/18 12:17:35;;;;;;;3.78;3.38;;;19.60;51.10;;;;;;5135200;27;20208;-71
2022/04/18 12:20:22;;;;;;;4.43;3.38;;;19.60;51.10;;;;;;5150670;27;20164;-72
2022/04/18 12:22:58;;;;;;;5.00;4.32;;;19.70;50.90;;;;;;5138678;27;20591;-71
2022/04/18 12:25:25;;;;;;;4.70;3.33;;;19.70;50.80;;;;;;5155988;27;20194;-70
2022/04/18 12:27:50;;;;;;;5.90;3.25;;;19.70;50.80;;;;;;5147888;27;20184;-70
2022/04/18 12:30:16;;;;;;;5.95;3.35;;;19.70;50.70;;;;;;5135822;27;20606;-70
2022/04/18 12:32:44;;;;;;;5.95;3.50;;;19.80;50.70;;;;;;5116554;27;20179;-68
2022/04/18 12:35:10;;;;;;;4.78;2.90;;;19.80;50.60;;;;;;5135840;27;20173;-68
2022/04/18 12:37:35;;;;;;;4.78;3.17;;;19.80;50.50;;;;;;5135781;27;20215;-69
2022/04/18 12:40:11;;;;;;;4.50;3.10;;;19.90;50.50;;;;;;5135017;27;20191;-70
2022/04/18 12:42:36;;;;;;;4.05;3.35;;;19.90;50.50;;;;;;5135706;27;20203;-70
2022/04/18 12:45:02;;;;;;;3.88;3.20;;;19.90;50.40;;;;;;5145139;27;20509;-69
2022/04/18 12:47:30;;;;;;;6.65;3.40;;;19.90;50.40;;;;;;5155646;27;20657;-71
2022/04/18 12:50:06;;;;;;;5.53;3.17;;;19.90;50.30;;;;;;5156298;27;20187;-70
2022/04/18 12:52:32;;;;;;;3.83;3.05;;;20.00;50.40;;;;;;5156333;27;20227;-70
2022/04/18 12:55:06;;;;;;;6.15;3.15;;;20.00;50.30;;;;;;5155541;27;20168;-70
2022/04/18 12:57:32;;;;;;;4.35;3.08;;;20.00;50.30;;;;;;5156095;27;20215;-69
2022/04/18 13:00:12;;;;;;;4.45;3.13;;;20.10;50.30;;;;;;5155351;27;20171;-70
2022/04/18 13:02:39;;;;;;;3.17;2.88;;;20.10;50.20;;;;;;5155916;27;20231;-69
2022/04/18 13:05:05;;;;;;;4.60;3.33;;;20.10;50.20;;;;;;5156340;27;20256;-68
2022/04/18 13:07:30;;;;;;;4.88;3.17;;;20.10;50.10;;;;;;5155479;27;20213;-69
2022/04/18 13:10:03;;;;;;;4.28;2.92;;;20.20;50.20;;;;;;5155615;27;20571;-71
2022/04/18 13:12:30;;;;;;;3.45;2.47;;;20.20;50.10;;;;;;5155996;27;20188;-73
2022/04/18 13:15:08;;;;;;;4.80;2.88;;;20.20;50.10;;;;;;5154852;27;20172;-72
2022/04/18 13:17:35;;;;;;;3.17;2.70;;;20.20;50.00;;;;;;5155593;27;20577;-71